Terminal Aerodrome Forecast
Issued by NWS

Home | Current Version | Previous Version | Text Only | Print | Product List | Glossary On
Versions: 1 2 3 4 5 6 7 8 9 10 11 12 13 14 15 16 17 18 19 20 21 22 23 24 25 26 27 28 29 30 31 32 33 34 35 36 37 38 39 40
057
FTUS44 KHGX 231121
TAFUTS
TAF
KUTS 231121Z 2312/2412 19009KT P6SM SCT015 BKN045
      TEMPO 2312/2315 BKN015
     FM240000 16005KT P6SM SCT250
     FM240800 18005KT P6SM SCT015=

USA.gov is the U.S. government's official web portal to all federal, state and local government web resources and services.